Glenn, Michigan
Current Conditions -  °F | °C
As of 11:15 AM on Saturday 25 Oct 2014 (Local Time) from KLWA Reporting Station
Haze Haze  
Wind Chill: 60°   Ceiling: 900
Heat Index: 60°   Visibility: 5mi
Dew Point: 56°   Wind: 10mph
Humidity: 87%   Direction: 270°W
Pressure: 29.89"   Gusts: 16mph
Location:  42.52°N, 86.23°W
Report Text: KLWA 251515Z AUTO 27009G14KT 5SM BR BKN009 BKN013 16/13 A2989 RMK AO2 T01550133
Loading
Personal Weather Stations






























Interactive Weather Map
Tropical Storm Tracking
New forecast layout! Learn more

10-Day Weather Forecast

Advertisements
Track Severe Weather on mobile